sensor_id;sensor_type;location;lat;lon;timestamp;P1;durP1;ratioP1;P2;durP2;ratioP2
43435;SDS011;36399;51.444;-2.018;2022-11-04T01:51:50;13.87;;;4.00;;
43435;SDS011;36399;51.444;-2.018;2022-11-04T01:59:32;7.97;;;3.40;;
43435;SDS011;36399;51.444;-2.018;2022-11-04T02:09:54;6.33;;;3.63;;
43435;SDS011;36399;51.444;-2.018;2022-11-04T03:09:06;11.17;;;4.10;;
43435;SDS011;36399;51.444;-2.018;2022-11-04T03:11:35;10.47;;;3.67;;
43435;SDS011;36399;51.444;-2.018;2022-11-04T03:54:40;8.93;;;3.67;;
43435;SDS011;36399;51.444;-2.018;2022-11-04T04:18:54;26.97;;;10.27;;
43435;SDS011;36399;51.444;-2.018;2022-11-04T04:21:27;30.37;;;9.90;;
43435;SDS011;36399;51.444;-2.018;2022-11-04T04:24:01;30.93;;;11.73;;
43435;SDS011;36399;51.444;-2.018;2022-11-04T05:18:36;42.17;;;15.83;;
43435;SDS011;36399;51.444;-2.018;2022-11-04T05:23:39;41.50;;;16.00;;
43435;SDS011;36399;51.444;-2.018;2022-11-04T10:00:50;5.40;;;1.48;;
43435;SDS011;36399;51.444;-2.018;2022-11-04T10:09:00;6.55;;;1.77;;
43435;SDS011;36399;51.444;-2.018;2022-11-04T10:11:36;3.05;;;1.40;;
43435;SDS011;36399;51.444;-2.018;2022-11-04T10:28:41;4.82;;;0.90;;
43435;SDS011;36399;51.444;-2.018;2022-11-04T10:31:12;2.85;;;1.05;;
43435;SDS011;36399;51.444;-2.018;2022-11-04T10:33:42;4.35;;;1.00;;
43435;SDS011;36399;51.444;-2.018;2022-11-04T11:08:30;11.88;;;1.48;;
43435;SDS011;36399;51.444;-2.018;2022-11-04T11:10:58;2.45;;;0.82;;
43435;SDS011;36399;51.444;-2.018;2022-11-04T11:13:25;3.45;;;0.90;;
43435;SDS011;36399;51.444;-2.018;2022-11-04T11:21:42;2.58;;;0.98;;
43435;SDS011;36399;51.444;-2.018;2022-11-04T11:27:02;3.08;;;0.93;;
43435;SDS011;36399;51.444;-2.018;2022-11-04T11:29:36;2.78;;;0.80;;
43435;SDS011;36399;51.444;-2.018;2022-11-04T11:32:05;2.70;;;0.82;;
43435;SDS011;36399;51.444;-2.018;2022-11-04T11:34:42;1.92;;;0.57;;
43435;SDS011;36399;51.444;-2.018;2022-11-04T11:37:29;2.28;;;1.00;;
43435;SDS011;36399;51.444;-2.018;2022-11-04T11:39:56;0.75;;;0.30;;
43435;SDS011;36399;51.444;-2.018;2022-11-04T11:42:22;2.90;;;0.88;;
43435;SDS011;36399;51.444;-2.018;2022-11-04T11:44:54;2.58;;;1.10;;
43435;SDS011;36399;51.444;-2.018;2022-11-04T11:52:43;3.47;;;1.15;;
43435;SDS011;36399;51.444;-2.018;2022-11-04T11:57:48;2.85;;;0.68;;
43435;SDS011;36399;51.444;-2.018;2022-11-04T12:00:36;5.82;;;0.88;;
43435;SDS011;36399;51.444;-2.018;2022-11-04T12:03:15;2.28;;;1.30;;
43435;SDS011;36399;51.444;-2.018;2022-11-04T12:11:33;3.47;;;0.98;;
43435;SDS011;36399;51.444;-2.018;2022-11-04T12:14:42;1.77;;;0.60;;
43435;SDS011;36399;51.444;-2.018;2022-11-04T12:17:32;3.00;;;0.63;;
43435;SDS011;36399;51.444;-2.018;2022-11-04T12:33:54;2.45;;;0.60;;
43435;SDS011;36399;51.444;-2.018;2022-11-04T12:36:35;2.55;;;0.70;;
43435;SDS011;36399;51.444;-2.018;2022-11-04T12:47:47;2.17;;;0.60;;
43435;SDS011;36399;51.444;-2.018;2022-11-04T12:50:20;3.57;;;1.03;;
43435;SDS011;36399;51.444;-2.018;2022-11-04T13:00:41;3.95;;;0.90;;
43435;SDS011;36399;51.444;-2.018;2022-11-04T13:03:14;4.20;;;0.90;;
43435;SDS011;36399;51.444;-2.018;2022-11-04T13:05:46;7.83;;;1.30;;
43435;SDS011;36399;51.444;-2.018;2022-11-04T13:10:58;5.25;;;0.82;;
43435;SDS011;36399;51.444;-2.018;2022-11-04T13:13:49;1.37;;;0.47;;
43435;SDS011;36399;51.444;-2.018;2022-11-04T13:16:29;3.53;;;1.37;;
43435;SDS011;36399;51.444;-2.018;2022-11-04T13:18:58;4.43;;;1.20;;
43435;SDS011;36399;51.444;-2.018;2022-11-04T13:21:26;2.60;;;0.70;;
43435;SDS011;36399;51.444;-2.018;2022-11-04T13:26:40;10.47;;;1.87;;
43435;SDS011;36399;51.444;-2.018;2022-11-04T13:29:06;2.67;;;0.57;;
43435;SDS011;36399;51.444;-2.018;2022-11-04T13:39:34;2.27;;;0.80;;
43435;SDS011;36399;51.444;-2.018;2022-11-04T13:44:53;6.80;;;0.73;;
43435;SDS011;36399;51.444;-2.018;2022-11-04T13:47:25;3.93;;;0.70;;
43435;SDS011;36399;51.444;-2.018;2022-11-04T13:49:58;3.60;;;0.83;;
43435;SDS011;36399;51.444;-2.018;2022-11-04T13:52:25;3.67;;;0.50;;
43435;SDS011;36399;51.444;-2.018;2022-11-04T13:54:57;0.73;;;0.50;;
43435;SDS011;36399;51.444;-2.018;2022-11-04T13:57:27;3.22;;;0.73;;
43435;SDS011;36399;51.444;-2.018;2022-11-04T14:00:38;3.87;;;0.87;;
43435;SDS011;36399;51.444;-2.018;2022-11-04T14:02:47;2.23;;;0.70;;
43435;SDS011;36399;51.444;-2.018;2022-11-04T14:16:03;4.23;;;0.70;;
43435;SDS011;36399;51.444;-2.018;2022-11-04T14:21:01;5.70;;;0.90;;
43435;SDS011;36399;51.444;-2.018;2022-11-04T14:23:27;2.77;;;0.97;;
43435;SDS011;36399;51.444;-2.018;2022-11-04T14:26:00;10.80;;;5.70;;
43435;SDS011;36399;51.444;-2.018;2022-11-04T14:28:29;6.43;;;1.80;;
43435;SDS011;36399;51.444;-2.018;2022-11-04T14:30:57;6.63;;;3.33;;
43435;SDS011;36399;51.444;-2.018;2022-11-04T14:33:32;8.37;;;1.30;;
43435;SDS011;36399;51.444;-2.018;2022-11-04T14:43:49;3.70;;;0.80;;
43435;SDS011;36399;51.444;-2.018;2022-11-04T14:46:23;4.20;;;1.00;;
43435;SDS011;36399;51.444;-2.018;2022-11-04T14:48:53;3.13;;;0.90;;
43435;SDS011;36399;51.444;-2.018;2022-11-04T14:51:23;4.57;;;0.80;;
43435;SDS011;36399;51.444;-2.018;2022-11-04T14:54:02;1.83;;;0.93;;
43435;SDS011;36399;51.444;-2.018;2022-11-04T14:56:34;1.55;;;0.77;;
43435;SDS011;36399;51.444;-2.018;2022-11-04T15:01:30;7.03;;;0.90;;
43435;SDS011;36399;51.444;-2.018;2022-11-04T15:06:43;3.10;;;0.80;;
43435;SDS011;36399;51.444;-2.018;2022-11-04T15:09:20;3.23;;;0.87;;
43435;SDS011;36399;51.444;-2.018;2022-11-04T15:12:02;1.42;;;0.50;;
43435;SDS011;36399;51.444;-2.018;2022-11-04T15:14:54;1.58;;;0.50;;
43435;SDS011;36399;51.444;-2.018;2022-11-04T15:17:21;3.63;;;1.00;;
43435;SDS011;36399;51.444;-2.018;2022-11-04T15:19:53;2.83;;;1.07;;
43435;SDS011;36399;51.444;-2.018;2022-11-04T15:22:21;2.30;;;0.60;;
43435;SDS011;36399;51.444;-2.018;2022-11-04T15:24:48;2.83;;;0.70;;
43435;SDS011;36399;51.444;-2.018;2022-11-04T15:27:18;2.67;;;0.50;;
43435;SDS011;36399;51.444;-2.018;2022-11-04T15:29:57;2.25;;;0.68;;
43435;SDS011;36399;51.444;-2.018;2022-11-04T15:32:25;5.80;;;1.80;;
43435;SDS011;36399;51.444;-2.018;2022-11-04T15:34:52;3.83;;;0.90;;
43435;SDS011;36399;51.444;-2.018;2022-11-04T15:37:20;2.73;;;0.87;;
43435;SDS011;36399;51.444;-2.018;2022-11-04T15:39:49;2.07;;;0.60;;
43435;SDS011;36399;51.444;-2.018;2022-11-04T15:42:18;3.20;;;0.60;;
43435;SDS011;36399;51.444;-2.018;2022-11-04T15:45:26;2.17;;;0.60;;
43435;SDS011;36399;51.444;-2.018;2022-11-04T15:53:46;1.57;;;0.50;;
43435;SDS011;36399;51.444;-2.018;2022-11-04T15:56:15;1.20;;;0.40;;
43435;SDS011;36399;51.444;-2.018;2022-11-04T15:58:44;2.73;;;0.80;;
43435;SDS011;36399;51.444;-2.018;2022-11-04T16:01:16;2.87;;;0.90;;
43435;SDS011;36399;51.444;-2.018;2022-11-04T16:06:13;2.60;;;1.07;;
43435;SDS011;36399;51.444;-2.018;2022-11-04T16:08:39;7.33;;;1.17;;
43435;SDS011;36399;51.444;-2.018;2022-11-04T16:11:16;2.77;;;0.80;;
43435;SDS011;36399;51.444;-2.018;2022-11-04T16:13:43;3.53;;;0.60;;
43435;SDS011;36399;51.444;-2.018;2022-11-04T16:16:14;2.80;;;0.80;;
43435;SDS011;36399;51.444;-2.018;2022-11-04T16:21:29;3.17;;;1.03;;
43435;SDS011;36399;51.444;-2.018;2022-11-04T16:24:14;1.77;;;0.83;;
43435;SDS011;36399;51.444;-2.018;2022-11-04T16:26:44;2.23;;;0.73;;
43435;SDS011;36399;51.444;-2.018;2022-11-04T16:31:45;2.20;;;0.67;;
43435;SDS011;36399;51.444;-2.018;2022-11-04T16:34:13;4.77;;;1.60;;
43435;SDS011;36399;51.444;-2.018;2022-11-04T16:36:39;4.90;;;1.97;;
43435;SDS011;36399;51.444;-2.018;2022-11-04T16:39:05;3.13;;;1.30;;
43435;SDS011;36399;51.444;-2.018;2022-11-04T16:41:34;5.57;;;1.40;;
43435;SDS011;36399;51.444;-2.018;2022-11-04T16:44:03;4.03;;;2.00;;
43435;SDS011;36399;51.444;-2.018;2022-11-04T16:46:33;5.60;;;2.00;;
43435;SDS011;36399;51.444;-2.018;2022-11-04T16:48:59;2.87;;;1.57;;
43435;SDS011;36399;51.444;-2.018;2022-11-04T16:51:25;4.97;;;1.93;;
43435;SDS011;36399;51.444;-2.018;2022-11-04T16:53:51;4.50;;;1.47;;
43435;SDS011;36399;51.444;-2.018;2022-11-04T16:56:20;4.70;;;1.27;;
43435;SDS011;36399;51.444;-2.018;2022-11-04T16:58:47;5.00;;;2.00;;
43435;SDS011;36399;51.444;-2.018;2022-11-04T17:01:14;3.57;;;1.53;;
43435;SDS011;36399;51.444;-2.018;2022-11-04T17:03:40;6.47;;;1.53;;
43435;SDS011;36399;51.444;-2.018;2022-11-04T17:06:11;4.00;;;1.87;;
43435;SDS011;36399;51.444;-2.018;2022-11-04T17:08:38;3.17;;;1.10;;
43435;SDS011;36399;51.444;-2.018;2022-11-04T17:11:04;5.60;;;1.50;;
43435;SDS011;36399;51.444;-2.018;2022-11-04T17:13:30;3.03;;;1.20;;
43435;SDS011;36399;51.444;-2.018;2022-11-04T17:15:56;5.63;;;1.20;;
43435;SDS011;36399;51.444;-2.018;2022-11-04T17:18:22;4.10;;;1.23;;
43435;SDS011;36399;51.444;-2.018;2022-11-04T17:20:52;5.87;;;1.70;;
43435;SDS011;36399;51.444;-2.018;2022-11-04T17:23:19;3.87;;;1.20;;
43435;SDS011;36399;51.444;-2.018;2022-11-04T17:25:46;4.17;;;1.07;;
43435;SDS011;36399;51.444;-2.018;2022-11-04T17:28:13;4.00;;;1.23;;
43435;SDS011;36399;51.444;-2.018;2022-11-04T17:30:42;3.97;;;1.27;;
43435;SDS011;36399;51.444;-2.018;2022-11-04T17:33:11;2.60;;;1.10;;
43435;SDS011;36399;51.444;-2.018;2022-11-04T17:35:41;4.13;;;1.40;;
43435;SDS011;36399;51.444;-2.018;2022-11-04T17:38:10;5.70;;;1.53;;
43435;SDS011;36399;51.444;-2.018;2022-11-04T17:40:36;4.73;;;2.23;;
43435;SDS011;36399;51.444;-2.018;2022-11-04T17:43:23;4.10;;;1.43;;
43435;SDS011;36399;51.444;-2.018;2022-11-04T17:46:08;3.03;;;1.20;;
43435;SDS011;36399;51.444;-2.018;2022-11-04T17:48:54;5.83;;;2.43;;
43435;SDS011;36399;51.444;-2.018;2022-11-04T17:51:20;3.70;;;1.10;;
43435;SDS011;36399;51.444;-2.018;2022-11-04T17:53:46;2.87;;;1.30;;
43435;SDS011;36399;51.444;-2.018;2022-11-04T17:56:20;6.00;;;1.30;;
43435;SDS011;36399;51.444;-2.018;2022-11-04T17:58:47;4.17;;;0.97;;
43435;SDS011;36399;51.444;-2.018;2022-11-04T18:01:14;5.17;;;2.57;;
43435;SDS011;36399;51.444;-2.018;2022-11-04T18:03:41;5.33;;;1.70;;
43435;SDS011;36399;51.444;-2.018;2022-11-04T18:06:08;2.57;;;1.27;;
43435;SDS011;36399;51.444;-2.018;2022-11-04T18:08:35;3.20;;;1.30;;
43435;SDS011;36399;51.444;-2.018;2022-11-04T18:11:01;3.57;;;1.30;;
43435;SDS011;36399;51.444;-2.018;2022-11-04T18:13:29;5.03;;;1.30;;
43435;SDS011;36399;51.444;-2.018;2022-11-04T18:15:55;3.87;;;1.43;;
43435;SDS011;36399;51.444;-2.018;2022-11-04T18:18:21;4.40;;;1.70;;
43435;SDS011;36399;51.444;-2.018;2022-11-04T18:20:47;4.03;;;1.80;;
43435;SDS011;36399;51.444;-2.018;2022-11-04T18:23:14;4.53;;;2.13;;
43435;SDS011;36399;51.444;-2.018;2022-11-04T18:25:40;4.73;;;1.50;;
43435;SDS011;36399;51.444;-2.018;2022-11-04T18:28:08;5.60;;;1.87;;
43435;SDS011;36399;51.444;-2.018;2022-11-04T18:30:37;4.60;;;2.13;;
43435;SDS011;36399;51.444;-2.018;2022-11-04T18:33:04;5.93;;;1.80;;
43435;SDS011;36399;51.444;-2.018;2022-11-04T18:35:30;7.70;;;2.63;;
43435;SDS011;36399;51.444;-2.018;2022-11-04T18:37:58;7.37;;;2.77;;
43435;SDS011;36399;51.444;-2.018;2022-11-04T18:40:24;9.27;;;2.40;;
43435;SDS011;36399;51.444;-2.018;2022-11-04T18:42:50;4.47;;;1.93;;
43435;SDS011;36399;51.444;-2.018;2022-11-04T18:45:16;5.53;;;2.27;;
43435;SDS011;36399;51.444;-2.018;2022-11-04T18:47:45;3.93;;;1.53;;
43435;SDS011;36399;51.444;-2.018;2022-11-04T18:50:11;4.10;;;1.93;;
43435;SDS011;36399;51.444;-2.018;2022-11-04T18:52:37;5.00;;;2.63;;
43435;SDS011;36399;51.444;-2.018;2022-11-04T18:55:03;7.80;;;2.43;;
43435;SDS011;36399;51.444;-2.018;2022-11-04T18:57:29;5.10;;;3.33;;
43435;SDS011;36399;51.444;-2.018;2022-11-04T18:59:55;5.23;;;2.50;;
43435;SDS011;36399;51.444;-2.018;2022-11-04T19:02:21;7.40;;;3.47;;
43435;SDS011;36399;51.444;-2.018;2022-11-04T19:04:48;5.93;;;3.30;;
43435;SDS011;36399;51.444;-2.018;2022-11-04T19:07:15;6.80;;;2.73;;
43435;SDS011;36399;51.444;-2.018;2022-11-04T19:09:41;5.13;;;2.60;;
43435;SDS011;36399;51.444;-2.018;2022-11-04T19:12:07;7.13;;;3.07;;
43435;SDS011;36399;51.444;-2.018;2022-11-04T19:14:52;7.97;;;3.27;;
43435;SDS011;36399;51.444;-2.018;2022-11-04T19:17:18;5.90;;;3.23;;
43435;SDS011;36399;51.444;-2.018;2022-11-04T19:19:44;9.03;;;3.20;;
43435;SDS011;36399;51.444;-2.018;2022-11-04T19:22:10;6.13;;;3.77;;
43435;SDS011;36399;51.444;-2.018;2022-11-04T19:24:37;9.73;;;4.50;;
43435;SDS011;36399;51.444;-2.018;2022-11-04T19:27:05;8.43;;;3.77;;
43435;SDS011;36399;51.444;-2.018;2022-11-04T19:29:31;9.03;;;4.13;;
43435;SDS011;36399;51.444;-2.018;2022-11-04T19:31:57;8.13;;;4.37;;
43435;SDS011;36399;51.444;-2.018;2022-11-04T19:34:24;7.80;;;4.50;;
43435;SDS011;36399;51.444;-2.018;2022-11-04T19:36:50;7.00;;;4.60;;
43435;SDS011;36399;51.444;-2.018;2022-11-04T19:39:16;20.77;;;10.17;;
43435;SDS011;36399;51.444;-2.018;2022-11-04T19:41:42;25.17;;;11.87;;
43435;SDS011;36399;51.444;-2.018;2022-11-04T19:44:27;16.60;;;7.77;;
43435;SDS011;36399;51.444;-2.018;2022-11-04T19:46:52;16.27;;;7.77;;
43435;SDS011;36399;51.444;-2.018;2022-11-04T19:49:18;8.60;;;4.77;;
43435;SDS011;36399;51.444;-2.018;2022-11-04T19:51:45;10.93;;;4.40;;
43435;SDS011;36399;51.444;-2.018;2022-11-04T19:54:11;9.53;;;4.03;;
43435;SDS011;36399;51.444;-2.018;2022-11-04T19:56:38;8.73;;;3.83;;
43435;SDS011;36399;51.444;-2.018;2022-11-04T19:59:04;7.53;;;4.10;;
43435;SDS011;36399;51.444;-2.018;2022-11-04T20:01:32;9.10;;;4.53;;
43435;SDS011;36399;51.444;-2.018;2022-11-04T20:03:59;6.47;;;3.80;;
43435;SDS011;36399;51.444;-2.018;2022-11-04T20:06:27;11.43;;;6.23;;
43435;SDS011;36399;51.444;-2.018;2022-11-04T20:08:54;9.23;;;4.63;;
43435;SDS011;36399;51.444;-2.018;2022-11-04T20:11:20;9.67;;;4.60;;
43435;SDS011;36399;51.444;-2.018;2022-11-04T20:13:46;6.43;;;4.17;;
43435;SDS011;36399;51.444;-2.018;2022-11-04T20:18:48;12.10;;;4.20;;
43435;SDS011;36399;51.444;-2.018;2022-11-04T20:21:16;9.63;;;4.37;;
43435;SDS011;36399;51.444;-2.018;2022-11-04T20:23:44;9.90;;;4.10;;
43435;SDS011;36399;51.444;-2.018;2022-11-04T20:26:15;11.73;;;4.23;;
43435;SDS011;36399;51.444;-2.018;2022-11-04T20:28:43;10.43;;;4.70;;
43435;SDS011;36399;51.444;-2.018;2022-11-04T20:33:36;12.83;;;5.23;;
43435;SDS011;36399;51.444;-2.018;2022-11-04T20:36:03;13.43;;;6.30;;
43435;SDS011;36399;51.444;-2.018;2022-11-04T20:38:30;29.10;;;12.50;;
43435;SDS011;36399;51.444;-2.018;2022-11-04T20:41:03;34.30;;;14.83;;
43435;SDS011;36399;51.444;-2.018;2022-11-04T20:43:34;32.47;;;14.47;;
43435;SDS011;36399;51.444;-2.018;2022-11-04T20:46:05;24.03;;;12.63;;
43435;SDS011;36399;51.444;-2.018;2022-11-04T20:48:34;18.50;;;8.10;;
43435;SDS011;36399;51.444;-2.018;2022-11-04T20:51:04;19.90;;;10.60;;
43435;SDS011;36399;51.444;-2.018;2022-11-04T20:53:31;60.00;;;29.23;;
43435;SDS011;36399;51.444;-2.018;2022-11-04T20:55:58;87.77;;;45.80;;
43435;SDS011;36399;51.444;-2.018;2022-11-04T20:58:24;65.30;;;36.97;;
43435;SDS011;36399;51.444;-2.018;2022-11-04T21:00:50;44.33;;;23.73;;
43435;SDS011;36399;51.444;-2.018;2022-11-04T21:03:17;68.10;;;32.57;;
43435;SDS011;36399;51.444;-2.018;2022-11-04T21:05:43;36.80;;;19.30;;
43435;SDS011;36399;51.444;-2.018;2022-11-04T21:08:09;36.57;;;20.63;;
43435;SDS011;36399;51.444;-2.018;2022-11-04T21:10:35;47.07;;;22.70;;
43435;SDS011;36399;51.444;-2.018;2022-11-04T21:13:01;44.50;;;23.47;;
43435;SDS011;36399;51.444;-2.018;2022-11-04T21:15:27;39.77;;;21.37;;
43435;SDS011;36399;51.444;-2.018;2022-11-04T21:18:06;49.53;;;22.90;;
43435;SDS011;36399;51.444;-2.018;2022-11-04T21:20:37;47.73;;;22.67;;
43435;SDS011;36399;51.444;-2.018;2022-11-04T21:23:04;65.27;;;27.03;;
43435;SDS011;36399;51.444;-2.018;2022-11-04T21:25:36;58.73;;;25.33;;
43435;SDS011;36399;51.444;-2.018;2022-11-04T21:28:08;68.20;;;27.50;;
43435;SDS011;36399;51.444;-2.018;2022-11-04T21:30:36;38.33;;;21.53;;
43435;SDS011;36399;51.444;-2.018;2022-11-04T21:33:04;18.80;;;12.07;;
43435;SDS011;36399;51.444;-2.018;2022-11-04T21:35:32;21.33;;;10.90;;
43435;SDS011;36399;51.444;-2.018;2022-11-04T21:38:00;19.67;;;10.13;;
43435;SDS011;36399;51.444;-2.018;2022-11-04T21:40:26;20.77;;;11.57;;
43435;SDS011;36399;51.444;-2.018;2022-11-04T21:42:52;21.70;;;12.30;;
43435;SDS011;36399;51.444;-2.018;2022-11-04T21:45:18;28.13;;;15.40;;
43435;SDS011;36399;51.444;-2.018;2022-11-04T21:47:44;25.80;;;13.47;;
43435;SDS011;36399;51.444;-2.018;2022-11-04T21:50:10;16.13;;;10.93;;
43435;SDS011;36399;51.444;-2.018;2022-11-04T21:52:36;21.97;;;10.33;;
43435;SDS011;36399;51.444;-2.018;2022-11-04T21:55:02;18.50;;;8.13;;
43435;SDS011;36399;51.444;-2.018;2022-11-04T21:57:28;14.40;;;8.63;;
43435;SDS011;36399;51.444;-2.018;2022-11-04T21:59:54;19.27;;;8.43;;
43435;SDS011;36399;51.444;-2.018;2022-11-04T22:02:20;15.50;;;8.03;;
43435;SDS011;36399;51.444;-2.018;2022-11-04T22:04:46;15.10;;;8.07;;
43435;SDS011;36399;51.444;-2.018;2022-11-04T22:07:12;15.77;;;7.63;;
43435;SDS011;36399;51.444;-2.018;2022-11-04T22:09:38;19.00;;;11.00;;
43435;SDS011;36399;51.444;-2.018;2022-11-04T22:12:04;21.20;;;11.57;;
43435;SDS011;36399;51.444;-2.018;2022-11-04T22:14:30;23.07;;;11.13;;
43435;SDS011;36399;51.444;-2.018;2022-11-04T22:16:56;29.03;;;15.50;;
43435;SDS011;36399;51.444;-2.018;2022-11-04T22:19:21;31.00;;;17.77;;
43435;SDS011;36399;51.444;-2.018;2022-11-04T22:21:47;34.50;;;19.90;;
43435;SDS011;36399;51.444;-2.018;2022-11-04T22:24:14;39.60;;;22.97;;
43435;SDS011;36399;51.444;-2.018;2022-11-04T22:26:41;46.70;;;24.40;;
43435;SDS011;36399;51.444;-2.018;2022-11-04T22:29:08;35.47;;;20.17;;
43435;SDS011;36399;51.444;-2.018;2022-11-04T22:31:38;40.03;;;22.07;;
43435;SDS011;36399;51.444;-2.018;2022-11-04T22:34:06;35.53;;;18.67;;
43435;SDS011;36399;51.444;-2.018;2022-11-04T22:36:32;27.87;;;16.43;;
43435;SDS011;36399;51.444;-2.018;2022-11-04T22:38:58;27.63;;;14.70;;
43435;SDS011;36399;51.444;-2.018;2022-11-04T22:41:26;23.07;;;13.17;;
43435;SDS011;36399;51.444;-2.018;2022-11-04T22:43:56;24.97;;;13.17;;
43435;SDS011;36399;51.444;-2.018;2022-11-04T22:46:24;27.50;;;13.80;;
43435;SDS011;36399;51.444;-2.018;2022-11-04T22:48:54;27.33;;;14.50;;
43435;SDS011;36399;51.444;-2.018;2022-11-04T22:51:21;31.50;;;15.10;;
43435;SDS011;36399;51.444;-2.018;2022-11-04T22:53:50;22.87;;;13.50;;
43435;SDS011;36399;51.444;-2.018;2022-11-04T22:56:20;21.52;;;11.38;;
43435;SDS011;36399;51.444;-2.018;2022-11-04T22:58:47;21.70;;;11.23;;
43435;SDS011;36399;51.444;-2.018;2022-11-04T23:01:13;21.27;;;9.77;;
43435;SDS011;36399;51.444;-2.018;2022-11-04T23:03:40;21.17;;;9.03;;
43435;SDS011;36399;51.444;-2.018;2022-11-04T23:06:06;16.67;;;8.00;;
43435;SDS011;36399;51.444;-2.018;2022-11-04T23:08:33;18.00;;;9.13;;
43435;SDS011;36399;51.444;-2.018;2022-11-04T23:11:01;19.70;;;9.23;;
43435;SDS011;36399;51.444;-2.018;2022-11-04T23:13:54;16.57;;;7.97;;
43435;SDS011;36399;51.444;-2.018;2022-11-04T23:16:40;15.57;;;8.70;;
43435;SDS011;36399;51.444;-2.018;2022-11-04T23:19:25;13.47;;;7.13;;
43435;SDS011;36399;51.444;-2.018;2022-11-04T23:21:51;14.30;;;7.63;;
43435;SDS011;36399;51.444;-2.018;2022-11-04T23:24:35;12.07;;;6.90;;
43435;SDS011;36399;51.444;-2.018;2022-11-04T23:27:20;19.40;;;8.77;;
43435;SDS011;36399;51.444;-2.018;2022-11-04T23:30:06;13.57;;;7.93;;
43435;SDS011;36399;51.444;-2.018;2022-11-04T23:32:46;15.60;;;7.50;;
43435;SDS011;36399;51.444;-2.018;2022-11-04T23:35:13;13.93;;;8.67;;
43435;SDS011;36399;51.444;-2.018;2022-11-04T23:37:58;13.37;;;7.13;;
43435;SDS011;36399;51.444;-2.018;2022-11-04T23:40:25;15.40;;;6.93;;
43435;SDS011;36399;51.444;-2.018;2022-11-04T23:42:52;11.83;;;7.70;;
43435;SDS011;36399;51.444;-2.018;2022-11-04T23:45:17;15.93;;;7.20;;
43435;SDS011;36399;51.444;-2.018;2022-11-04T23:48:02;15.50;;;7.00;;
43435;SDS011;36399;51.444;-2.018;2022-11-04T23:50:47;19.73;;;7.90;;
43435;SDS011;36399;51.444;-2.018;2022-11-04T23:53:31;18.17;;;7.20;;
43435;SDS011;36399;51.444;-2.018;2022-11-04T23:56:16;11.57;;;6.27;;
43435;SDS011;36399;51.444;-2.018;2022-11-04T23:59:00;11.53;;;5.07;;
